sensor_id;sensor_type;location;lat;lon;timestamp;P1;durP1;ratioP1;P2;durP2;ratioP2
80195;SDS011;69516;42.050;21.516;2023-07-29T00:00:53;9.90;;;5.13;;
80195;SDS011;69516;42.050;21.516;2023-07-29T00:03:20;9.57;;;5.53;;
80195;SDS011;69516;42.050;21.516;2023-07-29T00:05:47;9.65;;;5.28;;
80195;SDS011;69516;42.050;21.516;2023-07-29T00:08:13;11.15;;;5.57;;
80195;SDS011;69516;42.050;21.516;2023-07-29T00:10:40;9.27;;;5.20;;
80195;SDS011;69516;42.050;21.516;2023-07-29T00:13:06;10.50;;;5.47;;
80195;SDS011;69516;42.050;21.516;2023-07-29T00:15:33;8.32;;;5.22;;
80195;SDS011;69516;42.050;21.516;2023-07-29T00:17:59;10.93;;;5.45;;
80195;SDS011;69516;42.050;21.516;2023-07-29T00:20:26;7.30;;;4.97;;
80195;SDS011;69516;42.050;21.516;2023-07-29T00:22:52;13.50;;;6.93;;
80195;SDS011;69516;42.050;21.516;2023-07-29T00:25:19;8.63;;;5.28;;
80195;SDS011;69516;42.050;21.516;2023-07-29T00:27:46;9.82;;;5.55;;
80195;SDS011;69516;42.050;21.516;2023-07-29T00:30:12;7.68;;;5.20;;
80195;SDS011;69516;42.050;21.516;2023-07-29T00:32:38;10.55;;;5.32;;
80195;SDS011;69516;42.050;21.516;2023-07-29T00:35:04;8.02;;;4.93;;
80195;SDS011;69516;42.050;21.516;2023-07-29T00:37:31;8.48;;;5.13;;
80195;SDS011;69516;42.050;21.516;2023-07-29T00:39:57;10.38;;;5.22;;
80195;SDS011;69516;42.050;21.516;2023-07-29T00:42:23;10.23;;;4.90;;
80195;SDS011;69516;42.050;21.516;2023-07-29T00:44:49;12.98;;;5.40;;
80195;SDS011;69516;42.050;21.516;2023-07-29T00:47:16;9.73;;;5.50;;
80195;SDS011;69516;42.050;21.516;2023-07-29T00:49:42;9.35;;;4.97;;
80195;SDS011;69516;42.050;21.516;2023-07-29T00:52:09;8.63;;;4.80;;
80195;SDS011;69516;42.050;21.516;2023-07-29T00:54:39;9.27;;;4.97;;
80195;SDS011;69516;42.050;21.516;2023-07-29T00:57:06;7.88;;;5.13;;
80195;SDS011;69516;42.050;21.516;2023-07-29T00:59:32;10.38;;;5.30;;
80195;SDS011;69516;42.050;21.516;2023-07-29T01:01:58;8.75;;;5.40;;
80195;SDS011;69516;42.050;21.516;2023-07-29T01:04:25;8.63;;;4.70;;
80195;SDS011;69516;42.050;21.516;2023-07-29T01:17:26;10.13;;;5.10;;
80195;SDS011;69516;42.050;21.516;2023-07-29T01:20:00;9.80;;;5.43;;
80195;SDS011;69516;42.050;21.516;2023-07-29T01:22:30;7.57;;;4.63;;
80195;SDS011;69516;42.050;21.516;2023-07-29T01:24:58;8.30;;;5.10;;
80195;SDS011;69516;42.050;21.516;2023-07-29T01:27:24;9.57;;;4.50;;
80195;SDS011;69516;42.050;21.516;2023-07-29T01:29:51;8.45;;;4.97;;
80195;SDS011;69516;42.050;21.516;2023-07-29T01:32:19;7.32;;;4.38;;
80195;SDS011;69516;42.050;21.516;2023-07-29T01:37:49;9.93;;;4.90;;
80195;SDS011;69516;42.050;21.516;2023-07-29T01:40:16;8.40;;;4.95;;
80195;SDS011;69516;42.050;21.516;2023-07-29T01:42:44;9.65;;;5.38;;
80195;SDS011;69516;42.050;21.516;2023-07-29T01:45:11;8.80;;;4.97;;
80195;SDS011;69516;42.050;21.516;2023-07-29T01:47:37;7.47;;;4.72;;
80195;SDS011;69516;42.050;21.516;2023-07-29T01:50:05;9.02;;;4.90;;
80195;SDS011;69516;42.050;21.516;2023-07-29T01:52:32;10.00;;;5.32;;
80195;SDS011;69516;42.050;21.516;2023-07-29T01:54:58;7.78;;;4.60;;
80195;SDS011;69516;42.050;21.516;2023-07-29T01:57:24;9.35;;;4.85;;
80195;SDS011;69516;42.050;21.516;2023-07-29T01:59:50;7.65;;;4.88;;
80195;SDS011;69516;42.050;21.516;2023-07-29T02:02:17;8.85;;;5.25;;
80195;SDS011;69516;42.050;21.516;2023-07-29T02:04:44;9.00;;;4.90;;
80195;SDS011;69516;42.050;21.516;2023-07-29T02:07:13;8.00;;;5.07;;
80195;SDS011;69516;42.050;21.516;2023-07-29T02:09:39;8.50;;;5.15;;
80195;SDS011;69516;42.050;21.516;2023-07-29T02:12:05;7.85;;;5.00;;
80195;SDS011;69516;42.050;21.516;2023-07-29T02:14:32;7.95;;;4.80;;
80195;SDS011;69516;42.050;21.516;2023-07-29T02:16:58;9.38;;;5.25;;
80195;SDS011;69516;42.050;21.516;2023-07-29T02:19:24;10.07;;;5.03;;
80195;SDS011;69516;42.050;21.516;2023-07-29T02:21:50;8.77;;;5.25;;
80195;SDS011;69516;42.050;21.516;2023-07-29T02:24:17;9.07;;;4.82;;
80195;SDS011;69516;42.050;21.516;2023-07-29T02:26:43;10.73;;;5.30;;
80195;SDS011;69516;42.050;21.516;2023-07-29T02:29:09;7.68;;;4.93;;
80195;SDS011;69516;42.050;21.516;2023-07-29T02:31:35;8.48;;;5.20;;
80195;SDS011;69516;42.050;21.516;2023-07-29T02:34:02;8.95;;;5.65;;
80195;SDS011;69516;42.050;21.516;2023-07-29T02:36:29;10.90;;;5.40;;
80195;SDS011;69516;42.050;21.516;2023-07-29T02:38:55;9.23;;;5.03;;
80195;SDS011;69516;42.050;21.516;2023-07-29T02:41:21;8.68;;;5.28;;
80195;SDS011;69516;42.050;21.516;2023-07-29T02:43:48;10.45;;;5.55;;
80195;SDS011;69516;42.050;21.516;2023-07-29T02:46:14;10.68;;;5.78;;
80195;SDS011;69516;42.050;21.516;2023-07-29T02:48:41;8.90;;;5.32;;
80195;SDS011;69516;42.050;21.516;2023-07-29T02:51:07;9.07;;;5.03;;
80195;SDS011;69516;42.050;21.516;2023-07-29T02:53:33;8.75;;;5.25;;
80195;SDS011;69516;42.050;21.516;2023-07-29T02:56:02;8.85;;;4.90;;
80195;SDS011;69516;42.050;21.516;2023-07-29T02:58:28;7.68;;;4.90;;
80195;SDS011;69516;42.050;21.516;2023-07-29T03:01:00;8.57;;;5.40;;
80195;SDS011;69516;42.050;21.516;2023-07-29T03:03:27;7.68;;;4.85;;
80195;SDS011;69516;42.050;21.516;2023-07-29T03:06:09;7.82;;;5.10;;
80195;SDS011;69516;42.050;21.516;2023-07-29T03:08:35;8.65;;;5.00;;
80195;SDS011;69516;42.050;21.516;2023-07-29T03:11:05;9.13;;;4.97;;
80195;SDS011;69516;42.050;21.516;2023-07-29T03:13:32;7.88;;;4.82;;
80195;SDS011;69516;42.050;21.516;2023-07-29T03:16:05;10.15;;;5.35;;
80195;SDS011;69516;42.050;21.516;2023-07-29T03:18:34;10.13;;;5.10;;
80195;SDS011;69516;42.050;21.516;2023-07-29T03:21:00;8.95;;;4.60;;
80195;SDS011;69516;42.050;21.516;2023-07-29T03:23:27;8.07;;;5.18;;
80195;SDS011;69516;42.050;21.516;2023-07-29T03:25:54;10.82;;;5.15;;
80195;SDS011;69516;42.050;21.516;2023-07-29T03:28:22;7.40;;;5.10;;
80195;SDS011;69516;42.050;21.516;2023-07-29T03:30:49;8.18;;;4.85;;
80195;SDS011;69516;42.050;21.516;2023-07-29T03:33:15;7.80;;;4.70;;
80195;SDS011;69516;42.050;21.516;2023-07-29T03:35:41;9.30;;;5.18;;
80195;SDS011;69516;42.050;21.516;2023-07-29T03:40:36;7.85;;;4.88;;
80195;SDS011;69516;42.050;21.516;2023-07-29T03:43:02;7.60;;;4.68;;
80195;SDS011;69516;42.050;21.516;2023-07-29T03:45:28;9.15;;;5.38;;
80195;SDS011;69516;42.050;21.516;2023-07-29T03:47:54;20.20;;;7.28;;
80195;SDS011;69516;42.050;21.516;2023-07-29T03:50:20;11.98;;;4.80;;
80195;SDS011;69516;42.050;21.516;2023-07-29T03:52:47;9.70;;;5.40;;
80195;SDS011;69516;42.050;21.516;2023-07-29T03:55:13;9.95;;;5.40;;
80195;SDS011;69516;42.050;21.516;2023-07-29T03:57:39;14.95;;;6.05;;
80195;SDS011;69516;42.050;21.516;2023-07-29T04:00:05;8.55;;;4.93;;
80195;SDS011;69516;42.050;21.516;2023-07-29T04:02:31;9.00;;;5.05;;
80195;SDS011;69516;42.050;21.516;2023-07-29T04:04:57;9.10;;;5.07;;
80195;SDS011;69516;42.050;21.516;2023-07-29T04:07:23;8.40;;;5.30;;
80195;SDS011;69516;42.050;21.516;2023-07-29T04:09:50;9.13;;;5.05;;
80195;SDS011;69516;42.050;21.516;2023-07-29T04:12:16;10.23;;;5.90;;
80195;SDS011;69516;42.050;21.516;2023-07-29T04:14:44;6.97;;;4.97;;
80195;SDS011;69516;42.050;21.516;2023-07-29T04:17:10;8.38;;;5.32;;
80195;SDS011;69516;42.050;21.516;2023-07-29T04:19:36;8.57;;;5.68;;
80195;SDS011;69516;42.050;21.516;2023-07-29T04:22:02;10.07;;;6.53;;
80195;SDS011;69516;42.050;21.516;2023-07-29T04:24:28;10.30;;;5.70;;
80195;SDS011;69516;42.050;21.516;2023-07-29T04:26:54;10.57;;;5.80;;
80195;SDS011;69516;42.050;21.516;2023-07-29T04:29:21;8.15;;;5.50;;
80195;SDS011;69516;42.050;21.516;2023-07-29T04:31:48;8.98;;;5.55;;
80195;SDS011;69516;42.050;21.516;2023-07-29T04:34:14;9.30;;;6.03;;
80195;SDS011;69516;42.050;21.516;2023-07-29T04:36:40;11.52;;;6.70;;
80195;SDS011;69516;42.050;21.516;2023-07-29T04:39:06;10.13;;;6.00;;
80195;SDS011;69516;42.050;21.516;2023-07-29T04:41:33;10.07;;;5.80;;
80195;SDS011;69516;42.050;21.516;2023-07-29T04:43:59;15.48;;;6.35;;
80195;SDS011;69516;42.050;21.516;2023-07-29T04:46:25;7.25;;;5.30;;
80195;SDS011;69516;42.050;21.516;2023-07-29T04:48:51;11.35;;;5.53;;
80195;SDS011;69516;42.050;21.516;2023-07-29T04:51:17;8.73;;;5.13;;
80195;SDS011;69516;42.050;21.516;2023-07-29T04:53:43;8.82;;;5.30;;
80195;SDS011;69516;42.050;21.516;2023-07-29T04:56:09;8.13;;;5.22;;
80195;SDS011;69516;42.050;21.516;2023-07-29T04:58:36;8.45;;;4.97;;
80195;SDS011;69516;42.050;21.516;2023-07-29T05:01:02;10.10;;;5.32;;
80195;SDS011;69516;42.050;21.516;2023-07-29T05:03:29;8.00;;;4.88;;
80195;SDS011;69516;42.050;21.516;2023-07-29T05:05:55;7.50;;;5.00;;
80195;SDS011;69516;42.050;21.516;2023-07-29T05:08:22;9.73;;;5.40;;
80195;SDS011;69516;42.050;21.516;2023-07-29T05:10:49;12.55;;;6.07;;
80195;SDS011;69516;42.050;21.516;2023-07-29T05:13:15;7.93;;;5.70;;
80195;SDS011;69516;42.050;21.516;2023-07-29T05:15:41;9.73;;;6.22;;
80195;SDS011;69516;42.050;21.516;2023-07-29T05:18:07;9.13;;;5.95;;
80195;SDS011;69516;42.050;21.516;2023-07-29T05:20:33;9.68;;;6.00;;
80195;SDS011;69516;42.050;21.516;2023-07-29T05:23:00;10.07;;;5.75;;
80195;SDS011;69516;42.050;21.516;2023-07-29T05:25:26;11.68;;;5.20;;
80195;SDS011;69516;42.050;21.516;2023-07-29T05:27:52;7.97;;;5.05;;
80195;SDS011;69516;42.050;21.516;2023-07-29T05:30:18;10.52;;;5.43;;
80195;SDS011;69516;42.050;21.516;2023-07-29T05:32:45;7.28;;;4.75;;
80195;SDS011;69516;42.050;21.516;2023-07-29T05:35:11;7.80;;;5.40;;
80195;SDS011;69516;42.050;21.516;2023-07-29T05:37:37;10.40;;;5.20;;
80195;SDS011;69516;42.050;21.516;2023-07-29T05:40:05;7.65;;;5.18;;
80195;SDS011;69516;42.050;21.516;2023-07-29T05:42:32;9.95;;;5.72;;
80195;SDS011;69516;42.050;21.516;2023-07-29T05:44:58;8.55;;;5.43;;
80195;SDS011;69516;42.050;21.516;2023-07-29T05:47:24;10.50;;;5.40;;
80195;SDS011;69516;42.050;21.516;2023-07-29T05:49:50;11.52;;;5.80;;
80195;SDS011;69516;42.050;21.516;2023-07-29T05:52:16;8.98;;;6.00;;
80195;SDS011;69516;42.050;21.516;2023-07-29T05:54:42;9.77;;;5.88;;
80195;SDS011;69516;42.050;21.516;2023-07-29T05:57:09;9.13;;;6.15;;
80195;SDS011;69516;42.050;21.516;2023-07-29T05:59:35;9.93;;;6.28;;
80195;SDS011;69516;42.050;21.516;2023-07-29T06:02:01;9.27;;;6.32;;
80195;SDS011;69516;42.050;21.516;2023-07-29T06:04:27;9.82;;;6.00;;
80195;SDS011;69516;42.050;21.516;2023-07-29T06:06:53;7.97;;;5.78;;
80195;SDS011;69516;42.050;21.516;2023-07-29T06:09:21;9.88;;;5.88;;
80195;SDS011;69516;42.050;21.516;2023-07-29T06:11:47;8.95;;;5.55;;
80195;SDS011;69516;42.050;21.516;2023-07-29T06:14:13;9.05;;;5.05;;
80195;SDS011;69516;42.050;21.516;2023-07-29T06:16:39;10.32;;;5.57;;
80195;SDS011;69516;42.050;21.516;2023-07-29T06:19:05;9.55;;;5.25;;
80195;SDS011;69516;42.050;21.516;2023-07-29T06:21:33;11.70;;;5.13;;
80195;SDS011;69516;42.050;21.516;2023-07-29T06:24:00;9.27;;;4.95;;
80195;SDS011;69516;42.050;21.516;2023-07-29T06:26:26;9.90;;;5.57;;
80195;SDS011;69516;42.050;21.516;2023-07-29T06:28:52;9.95;;;5.45;;
80195;SDS011;69516;42.050;21.516;2023-07-29T06:31:18;8.10;;;5.20;;
80195;SDS011;69516;42.050;21.516;2023-07-29T06:33:44;9.07;;;5.40;;
80195;SDS011;69516;42.050;21.516;2023-07-29T06:36:10;9.43;;;5.97;;
80195;SDS011;69516;42.050;21.516;2023-07-29T06:38:36;10.43;;;5.95;;
80195;SDS011;69516;42.050;21.516;2023-07-29T06:41:03;10.88;;;6.00;;
80195;SDS011;69516;42.050;21.516;2023-07-29T06:43:30;10.00;;;5.45;;
80195;SDS011;69516;42.050;21.516;2023-07-29T06:45:56;12.57;;;6.47;;
80195;SDS011;69516;42.050;21.516;2023-07-29T06:48:22;12.45;;;6.80;;
80195;SDS011;69516;42.050;21.516;2023-07-29T06:50:48;8.20;;;5.90;;
80195;SDS011;69516;42.050;21.516;2023-07-29T06:53:20;13.70;;;6.22;;
80195;SDS011;69516;42.050;21.516;2023-07-29T06:55:46;10.32;;;6.45;;
80195;SDS011;69516;42.050;21.516;2023-07-29T06:58:12;11.07;;;6.60;;
80195;SDS011;69516;42.050;21.516;2023-07-29T07:00:38;11.57;;;6.70;;
80195;SDS011;69516;42.050;21.516;2023-07-29T07:03:04;14.00;;;6.38;;
80195;SDS011;69516;42.050;21.516;2023-07-29T07:05:31;11.48;;;6.90;;
80195;SDS011;69516;42.050;21.516;2023-07-29T07:07:57;12.52;;;6.93;;
80195;SDS011;69516;42.050;21.516;2023-07-29T07:10:23;13.68;;;7.15;;
80195;SDS011;69516;42.050;21.516;2023-07-29T07:12:49;11.10;;;6.75;;
80195;SDS011;69516;42.050;21.516;2023-07-29T07:15:15;10.63;;;6.57;;
80195;SDS011;69516;42.050;21.516;2023-07-29T07:17:41;10.15;;;6.75;;
80195;SDS011;69516;42.050;21.516;2023-07-29T07:20:07;13.52;;;7.45;;
80195;SDS011;69516;42.050;21.516;2023-07-29T07:22:34;11.18;;;6.57;;
80195;SDS011;69516;42.050;21.516;2023-07-29T07:25:00;13.25;;;7.13;;
80195;SDS011;69516;42.050;21.516;2023-07-29T07:27:26;10.52;;;6.60;;
80195;SDS011;69516;42.050;21.516;2023-07-29T07:29:52;11.60;;;7.40;;
80195;SDS011;69516;42.050;21.516;2023-07-29T07:32:18;9.55;;;6.13;;
80195;SDS011;69516;42.050;21.516;2023-07-29T07:34:44;13.23;;;7.00;;
80195;SDS011;69516;42.050;21.516;2023-07-29T07:37:10;12.05;;;7.38;;
80195;SDS011;69516;42.050;21.516;2023-07-29T07:39:37;13.57;;;7.07;;
80195;SDS011;69516;42.050;21.516;2023-07-29T07:42:03;10.90;;;6.07;;
80195;SDS011;69516;42.050;21.516;2023-07-29T07:44:29;13.90;;;6.75;;
80195;SDS011;69516;42.050;21.516;2023-07-29T07:46:55;13.25;;;6.53;;
80195;SDS011;69516;42.050;21.516;2023-07-29T07:49:22;12.23;;;6.50;;
80195;SDS011;69516;42.050;21.516;2023-07-29T07:51:48;9.85;;;6.10;;
80195;SDS011;69516;42.050;21.516;2023-07-29T07:54:14;12.57;;;6.07;;
80195;SDS011;69516;42.050;21.516;2023-07-29T07:56:40;12.63;;;6.63;;
80195;SDS011;69516;42.050;21.516;2023-07-29T07:59:06;9.32;;;5.53;;
80195;SDS011;69516;42.050;21.516;2023-07-29T08:01:38;10.80;;;6.13;;
80195;SDS011;69516;42.050;21.516;2023-07-29T08:04:04;9.27;;;5.68;;
80195;SDS011;69516;42.050;21.516;2023-07-29T08:06:30;13.50;;;6.15;;
80195;SDS011;69516;42.050;21.516;2023-07-29T08:08:57;11.35;;;5.55;;
80195;SDS011;69516;42.050;21.516;2023-07-29T08:11:23;8.82;;;5.53;;
80195;SDS011;69516;42.050;21.516;2023-07-29T08:13:49;10.52;;;5.85;;
80195;SDS011;69516;42.050;21.516;2023-07-29T08:16:15;9.50;;;5.80;;
80195;SDS011;69516;42.050;21.516;2023-07-29T08:18:41;9.70;;;5.65;;
80195;SDS011;69516;42.050;21.516;2023-07-29T08:21:07;9.25;;;5.95;;
80195;SDS011;69516;42.050;21.516;2023-07-29T08:23:34;11.77;;;6.03;;
80195;SDS011;69516;42.050;21.516;2023-07-29T08:26:01;7.60;;;5.00;;
80195;SDS011;69516;42.050;21.516;2023-07-29T08:28:34;10.40;;;5.15;;
80195;SDS011;69516;42.050;21.516;2023-07-29T08:31:01;10.05;;;5.50;;
80195;SDS011;69516;42.050;21.516;2023-07-29T08:33:27;8.63;;;5.18;;
80195;SDS011;69516;42.050;21.516;2023-07-29T08:35:54;9.95;;;5.40;;
80195;SDS011;69516;42.050;21.516;2023-07-29T08:38:20;8.48;;;5.45;;
80195;SDS011;69516;42.050;21.516;2023-07-29T08:40:50;8.20;;;5.30;;
80195;SDS011;69516;42.050;21.516;2023-07-29T08:43:18;9.48;;;5.03;;
80195;SDS011;69516;42.050;21.516;2023-07-29T08:45:45;9.85;;;5.25;;
80195;SDS011;69516;42.050;21.516;2023-07-29T08:48:11;8.05;;;4.90;;
80195;SDS011;69516;42.050;21.516;2023-07-29T08:50:38;7.97;;;5.25;;
80195;SDS011;69516;42.050;21.516;2023-07-29T08:53:05;11.77;;;5.65;;
80195;SDS011;69516;42.050;21.516;2023-07-29T08:55:31;8.02;;;4.50;;
80195;SDS011;69516;42.050;21.516;2023-07-29T08:57:58;8.27;;;4.53;;
80195;SDS011;69516;42.050;21.516;2023-07-29T09:00:25;9.68;;;4.88;;
80195;SDS011;69516;42.050;21.516;2023-07-29T09:02:52;7.75;;;4.50;;
80195;SDS011;69516;42.050;21.516;2023-07-29T09:05:18;7.18;;;4.55;;
80195;SDS011;69516;42.050;21.516;2023-07-29T09:10:13;7.40;;;4.45;;
80195;SDS011;69516;42.050;21.516;2023-07-29T09:12:39;9.13;;;4.53;;
80195;SDS011;69516;42.050;21.516;2023-07-29T09:15:06;7.55;;;4.22;;
80195;SDS011;69516;42.050;21.516;2023-07-29T09:17:33;8.48;;;4.45;;
80195;SDS011;69516;42.050;21.516;2023-07-29T09:19:59;7.25;;;4.38;;
80195;SDS011;69516;42.050;21.516;2023-07-29T09:22:26;8.02;;;4.38;;
80195;SDS011;69516;42.050;21.516;2023-07-29T09:24:52;9.93;;;3.80;;
80195;SDS011;69516;42.050;21.516;2023-07-29T09:27:28;7.35;;;4.25;;
80195;SDS011;69516;42.050;21.516;2023-07-29T09:29:56;12.10;;;4.82;;
80195;SDS011;69516;42.050;21.516;2023-07-29T09:32:24;8.80;;;4.88;;
80195;SDS011;69516;42.050;21.516;2023-07-29T09:34:50;9.25;;;4.60;;
80195;SDS011;69516;42.050;21.516;2023-07-29T09:37:17;8.43;;;4.65;;
80195;SDS011;69516;42.050;21.516;2023-07-29T09:39:44;7.65;;;4.60;;
80195;SDS011;69516;42.050;21.516;2023-07-29T09:42:20;10.02;;;4.25;;
80195;SDS011;69516;42.050;21.516;2023-07-29T09:44:47;7.20;;;4.43;;
80195;SDS011;69516;42.050;21.516;2023-07-29T09:47:23;7.80;;;4.97;;
80195;SDS011;69516;42.050;21.516;2023-07-29T09:49:50;8.65;;;4.53;;
80195;SDS011;69516;42.050;21.516;2023-07-29T09:52:17;7.70;;;4.40;;
80195;SDS011;69516;42.050;21.516;2023-07-29T09:54:43;7.45;;;4.63;;
80195;SDS011;69516;42.050;21.516;2023-07-29T09:57:11;7.32;;;4.70;;
80195;SDS011;69516;42.050;21.516;2023-07-29T09:59:37;7.43;;;4.43;;
80195;SDS011;69516;42.050;21.516;2023-07-29T10:02:03;8.52;;;4.53;;
80195;SDS011;69516;42.050;21.516;2023-07-29T10:04:29;9.05;;;4.53;;
80195;SDS011;69516;42.050;21.516;2023-07-29T10:06:56;7.38;;;4.50;;
80195;SDS011;69516;42.050;21.516;2023-07-29T10:09:23;8.00;;;4.72;;
80195;SDS011;69516;42.050;21.516;2023-07-29T10:11:50;8.10;;;4.32;;
80195;SDS011;69516;42.050;21.516;2023-07-29T10:14:18;8.73;;;4.40;;
80195;SDS011;69516;42.050;21.516;2023-07-29T10:16:44;7.57;;;4.00;;
80195;SDS011;69516;42.050;21.516;2023-07-29T10:19:12;6.65;;;4.30;;
80195;SDS011;69516;42.050;21.516;2023-07-29T10:24:06;7.95;;;4.38;;
80195;SDS011;69516;42.050;21.516;2023-07-29T10:26:35;8.07;;;4.20;;
80195;SDS011;69516;42.050;21.516;2023-07-29T10:31:29;6.88;;;3.88;;
80195;SDS011;69516;42.050;21.516;2023-07-29T10:33:56;7.18;;;3.92;;
80195;SDS011;69516;42.050;21.516;2023-07-29T10:36:23;6.38;;;3.70;;
80195;SDS011;69516;42.050;21.516;2023-07-29T10:38:49;7.60;;;4.00;;
80195;SDS011;69516;42.050;21.516;2023-07-29T10:41:15;6.78;;;3.97;;
80195;SDS011;69516;42.050;21.516;2023-07-29T10:43:41;6.65;;;3.80;;
80195;SDS011;69516;42.050;21.516;2023-07-29T10:46:17;6.03;;;3.55;;
80195;SDS011;69516;42.050;21.516;2023-07-29T10:48:53;6.05;;;3.60;;
80195;SDS011;69516;42.050;21.516;2023-07-29T10:51:23;6.70;;;3.90;;
80195;SDS011;69516;42.050;21.516;2023-07-29T10:54:11;6.60;;;3.88;;
80195;SDS011;69516;42.050;21.516;2023-07-29T10:56:40;6.55;;;4.13;;
80195;SDS011;69516;42.050;21.516;2023-07-29T11:01:43;6.40;;;3.70;;
80195;SDS011;69516;42.050;21.516;2023-07-29T11:15:03;7.53;;;3.63;;
80195;SDS011;69516;42.050;21.516;2023-07-29T11:17:30;5.07;;;3.35;;
80195;SDS011;69516;42.050;21.516;2023-07-29T11:20:03;6.85;;;4.18;;
80195;SDS011;69516;42.050;21.516;2023-07-29T11:22:29;5.93;;;3.70;;
80195;SDS011;69516;42.050;21.516;2023-07-29T11:24:56;5.10;;;3.05;;
80195;SDS011;69516;42.050;21.516;2023-07-29T11:27:22;4.63;;;2.90;;
80195;SDS011;69516;42.050;21.516;2023-07-29T11:29:48;6.03;;;4.00;;
80195;SDS011;69516;42.050;21.516;2023-07-29T11:32:15;6.07;;;3.92;;
80195;SDS011;69516;42.050;21.516;2023-07-29T11:34:42;6.88;;;3.35;;
80195;SDS011;69516;42.050;21.516;2023-07-29T11:37:10;5.53;;;3.50;;
80195;SDS011;69516;42.050;21.516;2023-07-29T11:39:44;5.85;;;3.40;;
80195;SDS011;69516;42.050;21.516;2023-07-29T11:42:11;7.45;;;3.38;;
80195;SDS011;69516;42.050;21.516;2023-07-29T11:44:37;5.70;;;2.83;;
80195;SDS011;69516;42.050;21.516;2023-07-29T11:47:07;5.40;;;2.95;;
80195;SDS011;69516;42.050;21.516;2023-07-29T11:49:34;4.60;;;2.65;;
80195;SDS011;69516;42.050;21.516;2023-07-29T11:52:00;5.55;;;3.03;;
80195;SDS011;69516;42.050;21.516;2023-07-29T11:54:26;5.55;;;2.97;;
80195;SDS011;69516;42.050;21.516;2023-07-29T11:56:53;5.88;;;3.08;;
80195;SDS011;69516;42.050;21.516;2023-07-29T11:59:19;5.10;;;3.10;;
80195;SDS011;69516;42.050;21.516;2023-07-29T12:01:45;5.10;;;2.97;;
80195;SDS011;69516;42.050;21.516;2023-07-29T12:04:12;7.18;;;3.03;;
80195;SDS011;69516;42.050;21.516;2023-07-29T12:06:38;5.45;;;3.53;;
80195;SDS011;69516;42.050;21.516;2023-07-29T12:09:04;6.75;;;3.33;;
80195;SDS011;69516;42.050;21.516;2023-07-29T12:11:31;5.30;;;2.95;;
80195;SDS011;69516;42.050;21.516;2023-07-29T12:13:59;6.78;;;3.85;;
80195;SDS011;69516;42.050;21.516;2023-07-29T12:16:25;6.95;;;3.50;;
80195;SDS011;69516;42.050;21.516;2023-07-29T12:18:51;5.38;;;3.22;;
80195;SDS011;69516;42.050;21.516;2023-07-29T12:21:20;8.38;;;3.58;;
80195;SDS011;69516;42.050;21.516;2023-07-29T12:23:47;5.03;;;3.08;;
80195;SDS011;69516;42.050;21.516;2023-07-29T12:26:13;5.38;;;3.22;;
80195;SDS011;69516;42.050;21.516;2023-07-29T12:28:44;9.35;;;3.30;;
80195;SDS011;69516;42.050;21.516;2023-07-29T12:31:10;5.20;;;3.30;;
80195;SDS011;69516;42.050;21.516;2023-07-29T12:33:36;5.25;;;3.25;;
80195;SDS011;69516;42.050;21.516;2023-07-29T12:36:04;5.60;;;3.33;;
80195;SDS011;69516;42.050;21.516;2023-07-29T12:38:30;6.28;;;3.45;;
80195;SDS011;69516;42.050;21.516;2023-07-29T12:40:56;6.28;;;3.50;;
80195;SDS011;69516;42.050;21.516;2023-07-29T12:43:22;6.10;;;3.30;;
80195;SDS011;69516;42.050;21.516;2023-07-29T12:45:49;5.55;;;3.47;;
80195;SDS011;69516;42.050;21.516;2023-07-29T12:48:15;6.22;;;3.47;;
80195;SDS011;69516;42.050;21.516;2023-07-29T12:50:41;6.68;;;3.63;;
80195;SDS011;69516;42.050;21.516;2023-07-29T12:53:08;8.43;;;3.47;;
80195;SDS011;69516;42.050;21.516;2023-07-29T12:55:37;5.20;;;3.33;;
80195;SDS011;69516;42.050;21.516;2023-07-29T12:58:03;6.15;;;3.53;;
80195;SDS011;69516;42.050;21.516;2023-07-29T13:00:30;6.80;;;3.22;;
80195;SDS011;69516;42.050;21.516;2023-07-29T13:02:56;6.40;;;3.45;;
80195;SDS011;69516;42.050;21.516;2023-07-29T13:05:22;6.05;;;3.42;;
80195;SDS011;69516;42.050;21.516;2023-07-29T13:07:48;6.93;;;3.40;;
80195;SDS011;69516;42.050;21.516;2023-07-29T13:10:14;5.28;;;3.38;;
80195;SDS011;69516;42.050;21.516;2023-07-29T13:12:41;6.68;;;3.05;;
80195;SDS011;69516;42.050;21.516;2023-07-29T13:15:07;6.50;;;3.17;;
80195;SDS011;69516;42.050;21.516;2023-07-29T13:17:33;5.57;;;3.13;;
80195;SDS011;69516;42.050;21.516;2023-07-29T13:19:59;5.05;;;3.20;;
80195;SDS011;69516;42.050;21.516;2023-07-29T13:22:26;5.78;;;3.13;;
80195;SDS011;69516;42.050;21.516;2023-07-29T13:24:52;5.00;;;3.00;;
80195;SDS011;69516;42.050;21.516;2023-07-29T13:27:18;5.85;;;3.00;;
80195;SDS011;69516;42.050;21.516;2023-07-29T13:29:44;6.60;;;3.50;;
80195;SDS011;69516;42.050;21.516;2023-07-29T13:32:11;5.07;;;3.10;;
80195;SDS011;69516;42.050;21.516;2023-07-29T13:34:38;5.50;;;3.20;;
80195;SDS011;69516;42.050;21.516;2023-07-29T13:37:05;5.35;;;3.22;;
80195;SDS011;69516;42.050;21.516;2023-07-29T13:39:31;5.97;;;3.15;;
80195;SDS011;69516;42.050;21.516;2023-07-29T13:41:57;6.80;;;3.60;;
80195;SDS011;69516;42.050;21.516;2023-07-29T13:44:23;5.53;;;3.45;;
80195;SDS011;69516;42.050;21.516;2023-07-29T13:46:49;6.63;;;3.13;;
80195;SDS011;69516;42.050;21.516;2023-07-29T13:49:16;5.00;;;3.25;;
80195;SDS011;69516;42.050;21.516;2023-07-29T13:51:42;5.40;;;3.22;;
80195;SDS011;69516;42.050;21.516;2023-07-29T13:54:08;5.43;;;3.15;;
80195;SDS011;69516;42.050;21.516;2023-07-29T13:56:34;5.88;;;2.88;;
80195;SDS011;69516;42.050;21.516;2023-07-29T13:59:00;5.72;;;3.17;;
80195;SDS011;69516;42.050;21.516;2023-07-29T14:01:26;6.93;;;3.35;;
80195;SDS011;69516;42.050;21.516;2023-07-29T14:03:52;5.30;;;3.50;;
80195;SDS011;69516;42.050;21.516;2023-07-29T14:06:18;6.50;;;3.72;;
80195;SDS011;69516;42.050;21.516;2023-07-29T14:08:44;6.57;;;3.25;;
80195;SDS011;69516;42.050;21.516;2023-07-29T14:11:11;4.85;;;2.95;;
80195;SDS011;69516;42.050;21.516;2023-07-29T14:13:37;5.90;;;3.53;;
80195;SDS011;69516;42.050;21.516;2023-07-29T14:16:03;5.35;;;3.25;;
80195;SDS011;69516;42.050;21.516;2023-07-29T14:18:30;5.28;;;3.13;;
80195;SDS011;69516;42.050;21.516;2023-07-29T14:20:56;5.28;;;2.97;;
80195;SDS011;69516;42.050;21.516;2023-07-29T14:23:22;5.57;;;3.13;;
80195;SDS011;69516;42.050;21.516;2023-07-29T14:25:48;6.72;;;3.05;;
80195;SDS011;69516;42.050;21.516;2023-07-29T14:28:14;6.72;;;3.20;;
80195;SDS011;69516;42.050;21.516;2023-07-29T14:30:41;5.43;;;3.00;;
80195;SDS011;69516;42.050;21.516;2023-07-29T14:33:07;5.55;;;3.17;;
80195;SDS011;69516;42.050;21.516;2023-07-29T14:35:33;7.28;;;3.05;;
80195;SDS011;69516;42.050;21.516;2023-07-29T14:37:59;5.72;;;3.20;;
80195;SDS011;69516;42.050;21.516;2023-07-29T14:40:25;5.50;;;3.03;;
80195;SDS011;69516;42.050;21.516;2023-07-29T14:42:52;7.03;;;4.10;;
80195;SDS011;69516;42.050;21.516;2023-07-29T14:45:18;6.35;;;3.75;;
80195;SDS011;69516;42.050;21.516;2023-07-29T14:47:44;7.18;;;4.13;;
80195;SDS011;69516;42.050;21.516;2023-07-29T14:50:10;7.13;;;3.95;;
80195;SDS011;69516;42.050;21.516;2023-07-29T14:52:37;5.53;;;3.15;;
80195;SDS011;69516;42.050;21.516;2023-07-29T14:55:03;6.15;;;3.17;;
80195;SDS011;69516;42.050;21.516;2023-07-29T14:57:29;5.32;;;3.17;;
80195;SDS011;69516;42.050;21.516;2023-07-29T14:59:55;5.70;;;3.35;;
80195;SDS011;69516;42.050;21.516;2023-07-29T15:02:21;5.00;;;3.05;;
80195;SDS011;69516;42.050;21.516;2023-07-29T15:04:48;5.57;;;3.08;;